sensor_id;sensor_type;location;lat;lon;timestamp;P1;durP1;ratioP1;P2;durP2;ratioP2
4508;SDS011;2267;48.816;9.230;2022-08-04T00:02:06;3.50;;;2.90;;
4508;SDS011;2267;48.816;9.230;2022-08-04T00:04:51;5.05;;;3.17;;
4508;SDS011;2267;48.816;9.230;2022-08-04T00:10:10;3.25;;;2.90;;
4508;SDS011;2267;48.816;9.230;2022-08-04T00:12:42;4.10;;;3.30;;
4508;SDS011;2267;48.816;9.230;2022-08-04T00:15:14;5.30;;;3.40;;
4508;SDS011;2267;48.816;9.230;2022-08-04T00:17:45;5.00;;;3.35;;
4508;SDS011;2267;48.816;9.230;2022-08-04T00:20:19;4.80;;;3.30;;
4508;SDS011;2267;48.816;9.230;2022-08-04T00:22:47;4.97;;;3.80;;
4508;SDS011;2267;48.816;9.230;2022-08-04T00:25:16;5.50;;;3.47;;
4508;SDS011;2267;48.816;9.230;2022-08-04T00:27:44;3.90;;;3.50;;
4508;SDS011;2267;48.816;9.230;2022-08-04T00:30:12;3.60;;;3.30;;
4508;SDS011;2267;48.816;9.230;2022-08-04T00:32:39;3.80;;;3.40;;
4508;SDS011;2267;48.816;9.230;2022-08-04T00:35:07;3.83;;;3.35;;
4508;SDS011;2267;48.816;9.230;2022-08-04T00:37:36;3.40;;;3.00;;
4508;SDS011;2267;48.816;9.230;2022-08-04T00:40:10;3.40;;;3.10;;
4508;SDS011;2267;48.816;9.230;2022-08-04T00:42:53;4.57;;;3.20;;
4508;SDS011;2267;48.816;9.230;2022-08-04T00:54:37;4.05;;;3.28;;
4508;SDS011;2267;48.816;9.230;2022-08-04T00:57:54;3.33;;;3.03;;
4508;SDS011;2267;48.816;9.230;2022-08-04T01:06:33;4.47;;;3.00;;
4508;SDS011;2267;48.816;9.230;2022-08-04T01:12:17;3.15;;;2.85;;
4508;SDS011;2267;48.816;9.230;2022-08-04T01:15:06;3.70;;;3.30;;
4508;SDS011;2267;48.816;9.230;2022-08-04T01:17:36;4.10;;;3.10;;
4508;SDS011;2267;48.816;9.230;2022-08-04T01:20:10;3.63;;;2.80;;
4508;SDS011;2267;48.816;9.230;2022-08-04T01:31:41;4.13;;;3.38;;
4508;SDS011;2267;48.816;9.230;2022-08-04T01:34:15;6.80;;;3.43;;
4508;SDS011;2267;48.816;9.230;2022-08-04T01:36:45;3.95;;;3.10;;
4508;SDS011;2267;48.816;9.230;2022-08-04T01:39:15;3.87;;;3.17;;
4508;SDS011;2267;48.816;9.230;2022-08-04T01:42:03;3.50;;;2.90;;
4508;SDS011;2267;48.816;9.230;2022-08-04T01:44:35;5.70;;;3.22;;
4508;SDS011;2267;48.816;9.230;2022-08-04T01:47:03;3.47;;;2.80;;
4508;SDS011;2267;48.816;9.230;2022-08-04T01:49:32;2.97;;;2.47;;
4508;SDS011;2267;48.816;9.230;2022-08-04T01:52:08;3.83;;;3.08;;
4508;SDS011;2267;48.816;9.230;2022-08-04T01:54:36;4.60;;;3.20;;
4508;SDS011;2267;48.816;9.230;2022-08-04T01:57:06;4.43;;;2.92;;
4508;SDS011;2267;48.816;9.230;2022-08-04T01:59:58;4.90;;;3.00;;
4508;SDS011;2267;48.816;9.230;2022-08-04T02:02:26;3.70;;;3.00;;
4508;SDS011;2267;48.816;9.230;2022-08-04T02:04:53;3.08;;;2.78;;
4508;SDS011;2267;48.816;9.230;2022-08-04T02:07:27;5.22;;;3.05;;
4508;SDS011;2267;48.816;9.230;2022-08-04T02:10:06;4.57;;;3.20;;
4508;SDS011;2267;48.816;9.230;2022-08-04T02:15:26;4.32;;;3.40;;
4508;SDS011;2267;48.816;9.230;2022-08-04T02:17:59;4.70;;;3.00;;
4508;SDS011;2267;48.816;9.230;2022-08-04T02:20:37;4.20;;;3.30;;
4508;SDS011;2267;48.816;9.230;2022-08-04T02:23:06;4.28;;;3.10;;
4508;SDS011;2267;48.816;9.230;2022-08-04T02:25:56;5.25;;;3.53;;
4508;SDS011;2267;48.816;9.230;2022-08-04T02:28:34;3.65;;;2.83;;
4508;SDS011;2267;48.816;9.230;2022-08-04T02:36:29;4.53;;;3.50;;
4508;SDS011;2267;48.816;9.230;2022-08-04T02:39:00;5.00;;;3.30;;
4508;SDS011;2267;48.816;9.230;2022-08-04T02:41:29;3.20;;;2.83;;
4508;SDS011;2267;48.816;9.230;2022-08-04T02:44:01;4.30;;;2.97;;
4508;SDS011;2267;48.816;9.230;2022-08-04T02:46:32;3.50;;;2.80;;
4508;SDS011;2267;48.816;9.230;2022-08-04T02:49:02;5.00;;;2.90;;
4508;SDS011;2267;48.816;9.230;2022-08-04T02:51:34;3.75;;;2.80;;
4508;SDS011;2267;48.816;9.230;2022-08-04T02:54:08;5.40;;;3.03;;
4508;SDS011;2267;48.816;9.230;2022-08-04T02:56:36;4.80;;;3.50;;
4508;SDS011;2267;48.816;9.230;2022-08-04T02:59:05;4.82;;;3.70;;
4508;SDS011;2267;48.816;9.230;2022-08-04T03:01:33;6.75;;;3.15;;
4508;SDS011;2267;48.816;9.230;2022-08-04T03:42:22;5.20;;;3.90;;
4508;SDS011;2267;48.816;9.230;2022-08-04T03:54:10;4.50;;;3.60;;
4508;SDS011;2267;48.816;9.230;2022-08-04T04:05:18;3.85;;;3.55;;
4508;SDS011;2267;48.816;9.230;2022-08-04T04:14:04;4.50;;;3.67;;
4508;SDS011;2267;48.816;9.230;2022-08-04T04:37:16;5.47;;;3.67;;
4508;SDS011;2267;48.816;9.230;2022-08-04T04:43:13;5.55;;;3.80;;
4508;SDS011;2267;48.816;9.230;2022-08-04T04:58:55;6.50;;;4.70;;
4508;SDS011;2267;48.816;9.230;2022-08-04T05:01:35;6.82;;;3.90;;
4508;SDS011;2267;48.816;9.230;2022-08-04T05:12:44;4.45;;;3.30;;
4508;SDS011;2267;48.816;9.230;2022-08-04T05:15:44;6.53;;;3.45;;
4508;SDS011;2267;48.816;9.230;2022-08-04T05:18:15;5.97;;;3.30;;
4508;SDS011;2267;48.816;9.230;2022-08-04T05:20:49;4.40;;;3.30;;
4508;SDS011;2267;48.816;9.230;2022-08-04T05:23:22;4.70;;;3.40;;
4508;SDS011;2267;48.816;9.230;2022-08-04T05:25:55;5.13;;;3.47;;
4508;SDS011;2267;48.816;9.230;2022-08-04T05:28:32;4.68;;;3.65;;
4508;SDS011;2267;48.816;9.230;2022-08-04T05:31:11;4.00;;;3.60;;
4508;SDS011;2267;48.816;9.230;2022-08-04T05:33:47;6.40;;;3.80;;
4508;SDS011;2267;48.816;9.230;2022-08-04T05:36:19;7.17;;;4.20;;
4508;SDS011;2267;48.816;9.230;2022-08-04T05:39:06;5.35;;;4.78;;
4508;SDS011;2267;48.816;9.230;2022-08-04T05:41:38;7.97;;;4.70;;
4508;SDS011;2267;48.816;9.230;2022-08-04T05:44:16;5.07;;;4.40;;
4508;SDS011;2267;48.816;9.230;2022-08-04T05:46:47;10.83;;;5.40;;
4508;SDS011;2267;48.816;9.230;2022-08-04T05:49:20;6.10;;;4.60;;
4508;SDS011;2267;48.816;9.230;2022-08-04T05:51:48;8.75;;;4.28;;
4508;SDS011;2267;48.816;9.230;2022-08-04T05:54:17;7.25;;;4.05;;
4508;SDS011;2267;48.816;9.230;2022-08-04T05:56:46;4.93;;;4.40;;
4508;SDS011;2267;48.816;9.230;2022-08-04T05:59:14;6.35;;;4.03;;
4508;SDS011;2267;48.816;9.230;2022-08-04T06:01:43;5.30;;;4.20;;
4508;SDS011;2267;48.816;9.230;2022-08-04T06:04:23;6.60;;;4.35;;
4508;SDS011;2267;48.816;9.230;2022-08-04T06:06:57;5.47;;;4.15;;
4508;SDS011;2267;48.816;9.230;2022-08-04T06:09:24;6.57;;;4.28;;
4508;SDS011;2267;48.816;9.230;2022-08-04T06:11:51;7.47;;;4.00;;
4508;SDS011;2267;48.816;9.230;2022-08-04T06:14:34;7.13;;;4.07;;
4508;SDS011;2267;48.816;9.230;2022-08-04T06:17:06;4.82;;;3.88;;
4508;SDS011;2267;48.816;9.230;2022-08-04T06:19:54;4.00;;;3.53;;
4508;SDS011;2267;48.816;9.230;2022-08-04T06:22:42;5.47;;;3.35;;
4508;SDS011;2267;48.816;9.230;2022-08-04T06:25:13;5.45;;;3.38;;
4508;SDS011;2267;48.816;9.230;2022-08-04T06:27:45;5.70;;;3.20;;
4508;SDS011;2267;48.816;9.230;2022-08-04T06:30:14;4.00;;;3.30;;
4508;SDS011;2267;48.816;9.230;2022-08-04T06:32:44;5.70;;;3.33;;
4508;SDS011;2267;48.816;9.230;2022-08-04T06:35:16;5.40;;;2.93;;
4508;SDS011;2267;48.816;9.230;2022-08-04T06:37:45;4.20;;;3.10;;
4508;SDS011;2267;48.816;9.230;2022-08-04T06:40:13;4.50;;;3.10;;
4508;SDS011;2267;48.816;9.230;2022-08-04T06:43:01;6.50;;;3.00;;
4508;SDS011;2267;48.816;9.230;2022-08-04T06:45:31;5.00;;;2.70;;
4508;SDS011;2267;48.816;9.230;2022-08-04T06:48:01;4.68;;;2.97;;
4508;SDS011;2267;48.816;9.230;2022-08-04T06:50:30;3.80;;;2.90;;
4508;SDS011;2267;48.816;9.230;2022-08-04T06:53:20;3.83;;;2.80;;
4508;SDS011;2267;48.816;9.230;2022-08-04T06:55:48;3.05;;;2.58;;
4508;SDS011;2267;48.816;9.230;2022-08-04T06:58:16;5.40;;;2.70;;
4508;SDS011;2267;48.816;9.230;2022-08-04T07:00:44;3.55;;;2.50;;
4508;SDS011;2267;48.816;9.230;2022-08-04T07:03:12;2.72;;;2.40;;
4508;SDS011;2267;48.816;9.230;2022-08-04T07:05:41;3.90;;;2.70;;
4508;SDS011;2267;48.816;9.230;2022-08-04T07:08:09;3.55;;;3.00;;
4508;SDS011;2267;48.816;9.230;2022-08-04T07:10:37;4.55;;;3.10;;
4508;SDS011;2267;48.816;9.230;2022-08-04T07:13:04;4.80;;;2.72;;
4508;SDS011;2267;48.816;9.230;2022-08-04T07:15:32;4.40;;;2.70;;
4508;SDS011;2267;48.816;9.230;2022-08-04T07:18:00;4.57;;;3.00;;
4508;SDS011;2267;48.816;9.230;2022-08-04T07:20:29;4.23;;;2.87;;
4508;SDS011;2267;48.816;9.230;2022-08-04T07:23:02;3.42;;;2.67;;
4508;SDS011;2267;48.816;9.230;2022-08-04T07:25:32;3.28;;;2.90;;
4508;SDS011;2267;48.816;9.230;2022-08-04T07:28:21;4.93;;;2.80;;
4508;SDS011;2267;48.816;9.230;2022-08-04T07:30:49;3.88;;;2.72;;
4508;SDS011;2267;48.816;9.230;2022-08-04T07:33:16;3.40;;;3.00;;
4508;SDS011;2267;48.816;9.230;2022-08-04T07:35:47;2.95;;;2.60;;
4508;SDS011;2267;48.816;9.230;2022-08-04T07:38:36;4.82;;;2.63;;
4508;SDS011;2267;48.816;9.230;2022-08-04T07:41:18;4.57;;;2.30;;
4508;SDS011;2267;48.816;9.230;2022-08-04T07:44:03;3.13;;;2.83;;
4508;SDS011;2267;48.816;9.230;2022-08-04T07:46:31;5.50;;;3.10;;
4508;SDS011;2267;48.816;9.230;2022-08-04T07:49:02;4.05;;;2.38;;
4508;SDS011;2267;48.816;9.230;2022-08-04T07:51:30;3.45;;;2.70;;
4508;SDS011;2267;48.816;9.230;2022-08-04T07:53:57;3.50;;;2.40;;
4508;SDS011;2267;48.816;9.230;2022-08-04T07:56:25;4.72;;;3.00;;
4508;SDS011;2267;48.816;9.230;2022-08-04T07:58:53;4.40;;;2.55;;
4508;SDS011;2267;48.816;9.230;2022-08-04T08:01:21;3.80;;;2.53;;
4508;SDS011;2267;48.816;9.230;2022-08-04T08:03:50;2.50;;;2.30;;
4508;SDS011;2267;48.816;9.230;2022-08-04T08:06:19;3.70;;;2.78;;
4508;SDS011;2267;48.816;9.230;2022-08-04T08:09:10;3.70;;;2.50;;
4508;SDS011;2267;48.816;9.230;2022-08-04T08:11:43;4.93;;;2.42;;
4508;SDS011;2267;48.816;9.230;2022-08-04T08:14:32;3.00;;;2.40;;
4508;SDS011;2267;48.816;9.230;2022-08-04T08:17:00;4.25;;;2.42;;
4508;SDS011;2267;48.816;9.230;2022-08-04T08:19:29;3.00;;;2.40;;
4508;SDS011;2267;48.816;9.230;2022-08-04T08:21:56;3.63;;;2.50;;
4508;SDS011;2267;48.816;9.230;2022-08-04T08:24:27;4.43;;;2.60;;
4508;SDS011;2267;48.816;9.230;2022-08-04T08:26:54;4.20;;;2.70;;
4508;SDS011;2267;48.816;9.230;2022-08-04T08:29:22;4.95;;;2.40;;
4508;SDS011;2267;48.816;9.230;2022-08-04T08:31:50;3.50;;;2.25;;
4508;SDS011;2267;48.816;9.230;2022-08-04T08:34:24;4.90;;;2.70;;
4508;SDS011;2267;48.816;9.230;2022-08-04T08:36:56;4.70;;;2.60;;
4508;SDS011;2267;48.816;9.230;2022-08-04T08:39:35;3.30;;;2.50;;
4508;SDS011;2267;48.816;9.230;2022-08-04T08:49:16;3.72;;;2.30;;
4508;SDS011;2267;48.816;9.230;2022-08-04T09:10:49;3.05;;;2.20;;
4508;SDS011;2267;48.816;9.230;2022-08-04T09:16:20;3.70;;;3.00;;
4508;SDS011;2267;48.816;9.230;2022-08-04T09:21:58;3.13;;;2.63;;
4508;SDS011;2267;48.816;9.230;2022-08-04T09:24:59;3.30;;;2.70;;
4508;SDS011;2267;48.816;9.230;2022-08-04T09:27:53;4.70;;;2.58;;
4508;SDS011;2267;48.816;9.230;2022-08-04T09:30:48;3.70;;;2.50;;
4508;SDS011;2267;48.816;9.230;2022-08-04T09:33:33;3.00;;;2.70;;
4508;SDS011;2267;48.816;9.230;2022-08-04T09:56:33;3.63;;;2.80;;
4508;SDS011;2267;48.816;9.230;2022-08-04T09:59:21;5.53;;;3.15;;
4508;SDS011;2267;48.816;9.230;2022-08-04T10:01:53;6.40;;;3.20;;
4508;SDS011;2267;48.816;9.230;2022-08-04T10:04:26;4.40;;;3.00;;
4508;SDS011;2267;48.816;9.230;2022-08-04T10:12:30;3.85;;;2.53;;
4508;SDS011;2267;48.816;9.230;2022-08-04T10:26:01;2.80;;;2.03;;
4508;SDS011;2267;48.816;9.230;2022-08-04T10:28:52;4.70;;;4.30;;
4508;SDS011;2267;48.816;9.230;2022-08-04T10:31:27;5.25;;;4.85;;
4508;SDS011;2267;48.816;9.230;2022-08-04T10:39:21;3.00;;;2.20;;
4508;SDS011;2267;48.816;9.230;2022-08-04T10:42:15;2.97;;;2.30;;
4508;SDS011;2267;48.816;9.230;2022-08-04T10:47:29;2.92;;;1.90;;
4508;SDS011;2267;48.816;9.230;2022-08-04T10:50:00;2.20;;;2.00;;
4508;SDS011;2267;48.816;9.230;2022-08-04T10:55:22;4.00;;;2.00;;
4508;SDS011;2267;48.816;9.230;2022-08-04T10:58:34;3.60;;;1.88;;
4508;SDS011;2267;48.816;9.230;2022-08-04T11:01:19;3.55;;;1.90;;
4508;SDS011;2267;48.816;9.230;2022-08-04T11:04:16;2.83;;;2.13;;
4508;SDS011;2267;48.816;9.230;2022-08-04T11:06:53;3.00;;;2.20;;
4508;SDS011;2267;48.816;9.230;2022-08-04T11:09:21;4.70;;;2.15;;
4508;SDS011;2267;48.816;9.230;2022-08-04T11:11:50;2.97;;;2.00;;
4508;SDS011;2267;48.816;9.230;2022-08-04T11:17:40;2.65;;;1.83;;
4508;SDS011;2267;48.816;9.230;2022-08-04T11:20:22;2.60;;;2.00;;
4508;SDS011;2267;48.816;9.230;2022-08-04T11:28:20;4.30;;;2.10;;
4508;SDS011;2267;48.816;9.230;2022-08-04T11:36:20;3.00;;;2.30;;
4508;SDS011;2267;48.816;9.230;2022-08-04T11:38:55;2.90;;;2.00;;
4508;SDS011;2267;48.816;9.230;2022-08-04T11:44:25;2.28;;;1.90;;
4508;SDS011;2267;48.816;9.230;2022-08-04T11:47:08;2.20;;;2.00;;
4508;SDS011;2267;48.816;9.230;2022-08-04T11:49:46;3.25;;;1.92;;
4508;SDS011;2267;48.816;9.230;2022-08-04T11:52:34;2.78;;;2.10;;
4508;SDS011;2267;48.816;9.230;2022-08-04T11:55:06;3.60;;;2.30;;
4508;SDS011;2267;48.816;9.230;2022-08-04T11:57:36;2.50;;;2.05;;
4508;SDS011;2267;48.816;9.230;2022-08-04T12:00:05;2.60;;;2.22;;
4508;SDS011;2267;48.816;9.230;2022-08-04T12:02:49;2.30;;;2.00;;
4508;SDS011;2267;48.816;9.230;2022-08-04T12:05:30;2.30;;;2.10;;
4508;SDS011;2267;48.816;9.230;2022-08-04T12:08:20;3.40;;;2.20;;
4508;SDS011;2267;48.816;9.230;2022-08-04T12:11:08;2.40;;;2.00;;
4508;SDS011;2267;48.816;9.230;2022-08-04T12:13:47;2.95;;;2.25;;
4508;SDS011;2267;48.816;9.230;2022-08-04T12:19:02;2.30;;;1.98;;
4508;SDS011;2267;48.816;9.230;2022-08-04T12:24:04;2.40;;;2.20;;
4508;SDS011;2267;48.816;9.230;2022-08-04T12:26:49;3.35;;;2.25;;
4508;SDS011;2267;48.816;9.230;2022-08-04T12:29:21;3.05;;;2.00;;
4508;SDS011;2267;48.816;9.230;2022-08-04T12:31:57;3.10;;;2.40;;
4508;SDS011;2267;48.816;9.230;2022-08-04T12:37:28;2.40;;;2.20;;
4508;SDS011;2267;48.816;9.230;2022-08-04T12:40:02;3.25;;;2.20;;
4508;SDS011;2267;48.816;9.230;2022-08-04T12:43:00;3.25;;;2.00;;
4508;SDS011;2267;48.816;9.230;2022-08-04T12:45:34;2.90;;;2.13;;
4508;SDS011;2267;48.816;9.230;2022-08-04T12:48:02;2.50;;;2.10;;
4508;SDS011;2267;48.816;9.230;2022-08-04T12:50:31;2.47;;;2.28;;
4508;SDS011;2267;48.816;9.230;2022-08-04T12:52:59;3.40;;;2.20;;
4508;SDS011;2267;48.816;9.230;2022-08-04T12:55:29;2.40;;;2.20;;
4508;SDS011;2267;48.816;9.230;2022-08-04T12:57:58;3.25;;;2.30;;
4508;SDS011;2267;48.816;9.230;2022-08-04T13:00:28;3.40;;;2.20;;
4508;SDS011;2267;48.816;9.230;2022-08-04T13:03:14;2.45;;;2.10;;
4508;SDS011;2267;48.816;9.230;2022-08-04T13:05:43;3.75;;;2.13;;
4508;SDS011;2267;48.816;9.230;2022-08-04T13:08:10;2.70;;;2.05;;
4508;SDS011;2267;48.816;9.230;2022-08-04T13:10:40;3.55;;;2.40;;
4508;SDS011;2267;48.816;9.230;2022-08-04T13:13:14;2.33;;;1.98;;
4508;SDS011;2267;48.816;9.230;2022-08-04T13:15:57;3.85;;;2.55;;
4508;SDS011;2267;48.816;9.230;2022-08-04T13:18:28;3.60;;;2.30;;
4508;SDS011;2267;48.816;9.230;2022-08-04T13:24:09;2.28;;;1.92;;
4508;SDS011;2267;48.816;9.230;2022-08-04T13:26:59;2.60;;;1.88;;
4508;SDS011;2267;48.816;9.230;2022-08-04T13:29:44;2.47;;;1.88;;
4508;SDS011;2267;48.816;9.230;2022-08-04T13:32:26;3.60;;;1.90;;
4508;SDS011;2267;48.816;9.230;2022-08-04T13:34:54;2.90;;;2.13;;
4508;SDS011;2267;48.816;9.230;2022-08-04T13:37:23;2.40;;;2.00;;
4508;SDS011;2267;48.816;9.230;2022-08-04T13:39:55;4.03;;;2.00;;
4508;SDS011;2267;48.816;9.230;2022-08-04T13:42:24;3.08;;;2.10;;
4508;SDS011;2267;48.816;9.230;2022-08-04T13:44:53;3.40;;;2.10;;
4508;SDS011;2267;48.816;9.230;2022-08-04T13:47:30;2.50;;;2.13;;
4508;SDS011;2267;48.816;9.230;2022-08-04T13:50:34;2.83;;;2.30;;
4508;SDS011;2267;48.816;9.230;2022-08-04T13:52:58;2.80;;;2.00;;
4508;SDS011;2267;48.816;9.230;2022-08-04T13:55:27;2.35;;;2.15;;
4508;SDS011;2267;48.816;9.230;2022-08-04T13:58:04;3.10;;;2.17;;
4508;SDS011;2267;48.816;9.230;2022-08-04T14:03:36;2.40;;;2.07;;
4508;SDS011;2267;48.816;9.230;2022-08-04T14:06:23;3.25;;;2.10;;
4508;SDS011;2267;48.816;9.230;2022-08-04T14:11:30;4.30;;;2.10;;
4508;SDS011;2267;48.816;9.230;2022-08-04T14:14:29;3.13;;;2.30;;
4508;SDS011;2267;48.816;9.230;2022-08-04T14:17:02;2.50;;;2.30;;
4508;SDS011;2267;48.816;9.230;2022-08-04T14:32:58;3.42;;;2.13;;
4508;SDS011;2267;48.816;9.230;2022-08-04T14:35:56;3.13;;;1.85;;
4508;SDS011;2267;48.816;9.230;2022-08-04T14:38:50;2.60;;;2.00;;
4508;SDS011;2267;48.816;9.230;2022-08-04T14:41:20;3.60;;;2.40;;
4508;SDS011;2267;48.816;9.230;2022-08-04T14:44:03;2.20;;;1.80;;
4508;SDS011;2267;48.816;9.230;2022-08-04T14:46:33;2.38;;;2.17;;
4508;SDS011;2267;48.816;9.230;2022-08-04T14:49:14;3.22;;;2.40;;
4508;SDS011;2267;48.816;9.230;2022-08-04T14:51:41;2.90;;;2.10;;
4508;SDS011;2267;48.816;9.230;2022-08-04T14:54:12;3.22;;;1.92;;
4508;SDS011;2267;48.816;9.230;2022-08-04T14:56:50;2.88;;;2.50;;
4508;SDS011;2267;48.816;9.230;2022-08-04T14:59:19;2.55;;;2.35;;
4508;SDS011;2267;48.816;9.230;2022-08-04T15:01:47;4.45;;;2.20;;
4508;SDS011;2267;48.816;9.230;2022-08-04T15:04:26;2.53;;;2.00;;
4508;SDS011;2267;48.816;9.230;2022-08-04T15:06:54;5.15;;;2.00;;
4508;SDS011;2267;48.816;9.230;2022-08-04T15:09:21;3.60;;;2.33;;
4508;SDS011;2267;48.816;9.230;2022-08-04T15:11:49;2.45;;;1.95;;
4508;SDS011;2267;48.816;9.230;2022-08-04T15:14:15;2.90;;;2.00;;
4508;SDS011;2267;48.816;9.230;2022-08-04T15:17:02;4.23;;;2.67;;
4508;SDS011;2267;48.816;9.230;2022-08-04T15:19:38;3.20;;;2.50;;
4508;SDS011;2267;48.816;9.230;2022-08-04T15:22:05;2.50;;;2.10;;
4508;SDS011;2267;48.816;9.230;2022-08-04T15:24:42;3.47;;;2.08;;
4508;SDS011;2267;48.816;9.230;2022-08-04T15:27:17;2.30;;;2.10;;
4508;SDS011;2267;48.816;9.230;2022-08-04T15:29:46;2.72;;;2.40;;
4508;SDS011;2267;48.816;9.230;2022-08-04T15:32:27;2.67;;;2.25;;
4508;SDS011;2267;48.816;9.230;2022-08-04T15:35:04;3.40;;;2.38;;
4508;SDS011;2267;48.816;9.230;2022-08-04T15:37:39;2.60;;;2.40;;
4508;SDS011;2267;48.816;9.230;2022-08-04T15:40:11;2.90;;;2.20;;
4508;SDS011;2267;48.816;9.230;2022-08-04T15:48:39;4.30;;;2.50;;
4508;SDS011;2267;48.816;9.230;2022-08-04T15:51:07;2.95;;;1.88;;
4508;SDS011;2267;48.816;9.230;2022-08-04T15:58:55;2.90;;;2.40;;
4508;SDS011;2267;48.816;9.230;2022-08-04T16:01:22;3.30;;;2.47;;
4508;SDS011;2267;48.816;9.230;2022-08-04T16:03:50;3.30;;;2.50;;
4508;SDS011;2267;48.816;9.230;2022-08-04T16:16:28;2.90;;;2.60;;
4508;SDS011;2267;48.816;9.230;2022-08-04T16:19:43;3.10;;;2.50;;
4508;SDS011;2267;48.816;9.230;2022-08-04T16:22:36;4.07;;;2.33;;
4508;SDS011;2267;48.816;9.230;2022-08-04T16:25:03;3.90;;;2.47;;
4508;SDS011;2267;48.816;9.230;2022-08-04T16:27:42;2.67;;;2.38;;
4508;SDS011;2267;48.816;9.230;2022-08-04T16:30:10;2.40;;;2.20;;
4508;SDS011;2267;48.816;9.230;2022-08-04T16:32:40;4.10;;;2.40;;
4508;SDS011;2267;48.816;9.230;2022-08-04T16:35:21;6.38;;;2.90;;
4508;SDS011;2267;48.816;9.230;2022-08-04T16:37:56;3.60;;;2.30;;
4508;SDS011;2267;48.816;9.230;2022-08-04T16:40:38;2.78;;;2.30;;
4508;SDS011;2267;48.816;9.230;2022-08-04T16:43:10;3.10;;;2.30;;
4508;SDS011;2267;48.816;9.230;2022-08-04T16:48:07;3.50;;;2.50;;
4508;SDS011;2267;48.816;9.230;2022-08-04T16:50:51;2.40;;;2.20;;
4508;SDS011;2267;48.816;9.230;2022-08-04T16:53:22;3.47;;;2.40;;
4508;SDS011;2267;48.816;9.230;2022-08-04T16:56:12;2.40;;;2.00;;
4508;SDS011;2267;48.816;9.230;2022-08-04T16:58:40;3.00;;;2.43;;
4508;SDS011;2267;48.816;9.230;2022-08-04T17:01:19;2.92;;;2.10;;
4508;SDS011;2267;48.816;9.230;2022-08-04T17:03:59;2.75;;;2.20;;
4508;SDS011;2267;48.816;9.230;2022-08-04T17:06:37;5.15;;;2.53;;
4508;SDS011;2267;48.816;9.230;2022-08-04T17:09:10;3.88;;;2.95;;
4508;SDS011;2267;48.816;9.230;2022-08-04T17:11:39;3.45;;;2.40;;
4508;SDS011;2267;48.816;9.230;2022-08-04T17:14:07;3.03;;;2.53;;
4508;SDS011;2267;48.816;9.230;2022-08-04T17:16:35;4.80;;;2.80;;
4508;SDS011;2267;48.816;9.230;2022-08-04T17:19:05;2.97;;;2.30;;
4508;SDS011;2267;48.816;9.230;2022-08-04T17:21:45;3.10;;;2.80;;
4508;SDS011;2267;48.816;9.230;2022-08-04T17:24:13;3.60;;;2.30;;
4508;SDS011;2267;48.816;9.230;2022-08-04T17:26:44;3.17;;;2.40;;
4508;SDS011;2267;48.816;9.230;2022-08-04T17:29:21;4.20;;;2.30;;
4508;SDS011;2267;48.816;9.230;2022-08-04T17:32:16;3.30;;;2.50;;
4508;SDS011;2267;48.816;9.230;2022-08-04T17:34:47;3.70;;;2.60;;
4508;SDS011;2267;48.816;9.230;2022-08-04T17:37:16;3.97;;;2.35;;
4508;SDS011;2267;48.816;9.230;2022-08-04T17:40:10;3.30;;;2.08;;
4508;SDS011;2267;48.816;9.230;2022-08-04T17:42:59;3.20;;;2.50;;
4508;SDS011;2267;48.816;9.230;2022-08-04T17:51:47;5.82;;;2.50;;
4508;SDS011;2267;48.816;9.230;2022-08-04T17:54:37;3.72;;;2.20;;
4508;SDS011;2267;48.816;9.230;2022-08-04T17:57:13;4.28;;;2.30;;
4508;SDS011;2267;48.816;9.230;2022-08-04T17:59:46;2.58;;;2.35;;
4508;SDS011;2267;48.816;9.230;2022-08-04T18:02:27;3.97;;;2.35;;
4508;SDS011;2267;48.816;9.230;2022-08-04T18:04:59;3.22;;;2.50;;
4508;SDS011;2267;48.816;9.230;2022-08-04T18:07:40;2.85;;;2.63;;
4508;SDS011;2267;48.816;9.230;2022-08-04T18:10:34;4.45;;;2.60;;
4508;SDS011;2267;48.816;9.230;2022-08-04T18:13:21;5.40;;;2.90;;
4508;SDS011;2267;48.816;9.230;2022-08-04T18:16:04;2.80;;;2.45;;
4508;SDS011;2267;48.816;9.230;2022-08-04T18:21:46;4.30;;;2.83;;
4508;SDS011;2267;48.816;9.230;2022-08-04T18:24:29;4.60;;;2.70;;
4508;SDS011;2267;48.816;9.230;2022-08-04T18:27:17;6.28;;;2.50;;
4508;SDS011;2267;48.816;9.230;2022-08-04T18:29:46;3.13;;;2.40;;
4508;SDS011;2267;48.816;9.230;2022-08-04T18:32:33;3.97;;;2.63;;
4508;SDS011;2267;48.816;9.230;2022-08-04T18:35:01;3.53;;;2.60;;
4508;SDS011;2267;48.816;9.230;2022-08-04T18:37:32;4.90;;;2.70;;
4508;SDS011;2267;48.816;9.230;2022-08-04T18:40:19;4.03;;;3.22;;
4508;SDS011;2267;48.816;9.230;2022-08-04T18:43:00;5.63;;;3.20;;
4508;SDS011;2267;48.816;9.230;2022-08-04T18:45:28;4.05;;;3.03;;
4508;SDS011;2267;48.816;9.230;2022-08-04T18:48:00;4.20;;;3.20;;
4508;SDS011;2267;48.816;9.230;2022-08-04T18:50:39;5.22;;;3.33;;
4508;SDS011;2267;48.816;9.230;2022-08-04T18:53:27;3.88;;;3.47;;
4508;SDS011;2267;48.816;9.230;2022-08-04T18:56:01;6.82;;;3.67;;
4508;SDS011;2267;48.816;9.230;2022-08-04T18:58:31;4.30;;;3.90;;
4508;SDS011;2267;48.816;9.230;2022-08-04T19:00:58;4.32;;;3.50;;
4508;SDS011;2267;48.816;9.230;2022-08-04T19:03:26;4.05;;;3.10;;
4508;SDS011;2267;48.816;9.230;2022-08-04T19:05:58;4.55;;;3.67;;
4508;SDS011;2267;48.816;9.230;2022-08-04T19:08:28;5.60;;;3.83;;
4508;SDS011;2267;48.816;9.230;2022-08-04T19:11:00;5.60;;;3.30;;
4508;SDS011;2267;48.816;9.230;2022-08-04T19:13:48;6.60;;;3.53;;
4508;SDS011;2267;48.816;9.230;2022-08-04T19:16:24;4.80;;;4.03;;
4508;SDS011;2267;48.816;9.230;2022-08-04T19:18:53;4.82;;;3.97;;
4508;SDS011;2267;48.816;9.230;2022-08-04T19:21:21;6.53;;;3.78;;
4508;SDS011;2267;48.816;9.230;2022-08-04T19:24:09;4.30;;;3.63;;
4508;SDS011;2267;48.816;9.230;2022-08-04T19:26:57;4.30;;;3.50;;
4508;SDS011;2267;48.816;9.230;2022-08-04T19:29:24;5.70;;;4.35;;
4508;SDS011;2267;48.816;9.230;2022-08-04T19:32:06;5.07;;;4.03;;
4508;SDS011;2267;48.816;9.230;2022-08-04T19:34:41;5.50;;;3.55;;
4508;SDS011;2267;48.816;9.230;2022-08-04T19:37:29;5.03;;;3.83;;
4508;SDS011;2267;48.816;9.230;2022-08-04T19:40:17;7.18;;;4.00;;
4508;SDS011;2267;48.816;9.230;2022-08-04T19:42:59;4.63;;;3.90;;
4508;SDS011;2267;48.816;9.230;2022-08-04T19:45:40;5.45;;;3.80;;
4508;SDS011;2267;48.816;9.230;2022-08-04T19:48:11;4.57;;;4.10;;
4508;SDS011;2267;48.816;9.230;2022-08-04T19:50:44;5.50;;;4.20;;
4508;SDS011;2267;48.816;9.230;2022-08-04T19:53:11;5.07;;;4.00;;
4508;SDS011;2267;48.816;9.230;2022-08-04T19:55:45;5.32;;;3.92;;
4508;SDS011;2267;48.816;9.230;2022-08-04T19:58:15;4.30;;;3.67;;
4508;SDS011;2267;48.816;9.230;2022-08-04T20:00:42;4.57;;;3.97;;
4508;SDS011;2267;48.816;9.230;2022-08-04T20:03:16;4.47;;;4.07;;
4508;SDS011;2267;48.816;9.230;2022-08-04T20:05:46;4.45;;;4.05;;
4508;SDS011;2267;48.816;9.230;2022-08-04T20:08:21;4.97;;;4.40;;
4508;SDS011;2267;48.816;9.230;2022-08-04T20:10:49;4.75;;;4.25;;
4508;SDS011;2267;48.816;9.230;2022-08-04T20:13:19;7.78;;;4.32;;
4508;SDS011;2267;48.816;9.230;2022-08-04T20:15:47;5.03;;;4.38;;
4508;SDS011;2267;48.816;9.230;2022-08-04T20:18:23;5.18;;;4.68;;
4508;SDS011;2267;48.816;9.230;2022-08-04T20:21:13;4.97;;;4.47;;
4508;SDS011;2267;48.816;9.230;2022-08-04T20:23:49;6.75;;;4.43;;
4508;SDS011;2267;48.816;9.230;2022-08-04T20:26:17;6.03;;;4.88;;
4508;SDS011;2267;48.816;9.230;2022-08-04T20:28:44;4.90;;;4.40;;
4508;SDS011;2267;48.816;9.230;2022-08-04T20:31:17;5.05;;;4.50;;
4508;SDS011;2267;48.816;9.230;2022-08-04T20:33:44;5.45;;;4.95;;
4508;SDS011;2267;48.816;9.230;2022-08-04T20:36:20;7.00;;;5.03;;
4508;SDS011;2267;48.816;9.230;2022-08-04T20:38:49;6.13;;;5.28;;
4508;SDS011;2267;48.816;9.230;2022-08-04T20:41:18;5.95;;;5.18;;
4508;SDS011;2267;48.816;9.230;2022-08-04T20:43:46;5.68;;;5.00;;
4508;SDS011;2267;48.816;9.230;2022-08-04T20:46:16;5.07;;;4.57;;
4508;SDS011;2267;48.816;9.230;2022-08-04T20:48:54;4.97;;;4.57;;
4508;SDS011;2267;48.816;9.230;2022-08-04T20:51:22;5.20;;;4.70;;
4508;SDS011;2267;48.816;9.230;2022-08-04T20:53:58;5.70;;;4.93;;
4508;SDS011;2267;48.816;9.230;2022-08-04T20:56:26;6.38;;;4.82;;
4508;SDS011;2267;48.816;9.230;2022-08-04T20:58:56;5.57;;;4.97;;
4508;SDS011;2267;48.816;9.230;2022-08-04T21:01:23;6.15;;;4.90;;
4508;SDS011;2267;48.816;9.230;2022-08-04T21:03:54;5.13;;;4.63;;
4508;SDS011;2267;48.816;9.230;2022-08-04T21:06:53;7.28;;;5.10;;
4508;SDS011;2267;48.816;9.230;2022-08-04T21:09:30;7.32;;;5.38;;
4508;SDS011;2267;48.816;9.230;2022-08-04T21:12:07;5.43;;;4.90;;